createdAt,value
2022-09-14T00:00:09.678Z,85.63
2022-09-14T00:02:36.117Z,85.85
2022-09-14T00:05:02.592Z,85.73
2022-09-14T00:07:29.024Z,86.33
2022-09-14T00:09:55.790Z,85.90
2022-09-14T00:12:22.209Z,86.87
2022-09-14T00:14:48.570Z,87.33
2022-09-14T00:17:14.959Z,86.98
2022-09-14T00:19:41.459Z,86.81
2022-09-14T00:22:07.838Z,85.74
2022-09-14T00:24:35.076Z,86.38
2022-09-14T00:27:02.674Z,87.38
2022-09-14T00:29:30.582Z,87.06
2022-09-14T00:31:57.383Z,86.87
2022-09-14T00:34:23.886Z,87.54
2022-09-14T00:36:51.560Z,86.42
2022-09-14T00:39:19.886Z,85.35
2022-09-14T00:41:48.785Z,85.91
2022-09-14T00:44:15.062Z,85.07
2022-09-14T00:46:44.052Z,85.37
2022-09-14T00:49:13.384Z,83.32
2022-09-14T00:51:45.696Z,83.52
2022-09-14T00:54:12.135Z,83.13
2022-09-14T00:56:38.519Z,83.11
2022-09-14T00:59:13.083Z,84.06
2022-09-14T01:01:39.733Z,85.23
2022-09-14T01:04:06.086Z,85.30
2022-09-14T01:06:35.935Z,85.55
2022-09-14T01:09:28.074Z,85.45
2022-09-14T01:12:20.437Z,85.41
2022-09-14T01:14:58.094Z,84.94
2022-09-14T01:17:35.651Z,84.41
2022-09-14T01:20:27.084Z,83.47
2022-09-14T01:23:30.027Z,84.50
2022-09-14T01:26:26.336Z,82.77
2022-09-14T01:29:01.882Z,82.29
2022-09-14T01:31:35.131Z,82.24
2022-09-14T01:34:09.304Z,82.32
2022-09-14T01:36:37.702Z,83.06
2022-09-14T01:39:04.423Z,83.72
2022-09-14T01:41:32.950Z,83.34
2022-09-14T01:44:14.686Z,83.27
2022-09-14T01:46:57.176Z,82.28
2022-09-14T01:49:34.085Z,81.77
2022-09-14T01:52:21.619Z,82.90
2022-09-14T01:54:51.138Z,81.81
2022-09-14T01:57:26.011Z,82.55
2022-09-14T01:59:57.253Z,82.14
2022-09-14T02:02:28.885Z,83.59
2022-09-14T02:05:07.991Z,84.14
2022-09-14T02:07:36.517Z,84.81
2022-09-14T02:10:06.535Z,85.93
2022-09-14T02:12:33.859Z,87.08
2022-09-14T02:15:00.269Z,87.26
2022-09-14T02:17:27.487Z,86.59
2022-09-14T02:19:58.819Z,87.88
2022-09-14T02:22:26.707Z,87.16
2022-09-14T02:24:54.254Z,86.71
2022-09-14T02:27:21.065Z,86.78
2022-09-14T02:29:47.932Z,86.06
2022-09-14T02:32:40.830Z,86.79
2022-09-14T02:35:25.772Z,87.85
2022-09-14T02:38:14.276Z,87.98
2022-09-14T02:40:53.376Z,88.44
2022-09-14T02:43:38.597Z,87.99
2022-09-14T02:46:14.110Z,88.46
2022-09-14T02:48:54.137Z,88.36
2022-09-14T02:51:57.135Z,88.34
2022-09-14T02:54:36.368Z,88.51
2022-09-14T02:57:03.955Z,87.54
2022-09-14T02:59:30.802Z,88.39
2022-09-14T03:01:59.173Z,88.07
2022-09-14T03:04:25.598Z,88.03
2022-09-14T03:06:52.063Z,88.17
2022-09-14T03:09:18.511Z,86.99
2022-09-14T03:11:44.934Z,87.45
2022-09-14T03:14:11.910Z,87.10
2022-09-14T03:16:39.430Z,87.52
2022-09-14T03:19:06.532Z,86.94
2022-09-14T03:21:33.753Z,87.41
2022-09-14T03:24:00.102Z,87.72
2022-09-14T03:26:27.525Z,87.82
2022-09-14T03:28:55.994Z,87.17
2022-09-14T03:31:22.928Z,86.86
2022-09-14T03:33:56.917Z,86.67
2022-09-14T03:36:25.459Z,88.04
2022-09-14T03:38:54.691Z,87.35
2022-09-14T03:41:22.694Z,87.05
2022-09-14T03:43:49.590Z,87.28
2022-09-14T03:46:21.425Z,87.48
2022-09-14T03:48:48.691Z,87.53
2022-09-14T03:51:15.687Z,87.95
2022-09-14T03:53:43.604Z,88.18
2022-09-14T03:56:13.702Z,88.00
2022-09-14T03:58:40.214Z,87.23
2022-09-14T04:01:08.669Z,87.80
2022-09-14T04:03:35.879Z,87.89
2022-09-14T04:06:05.356Z,87.91
2022-09-14T04:08:36.700Z,88.52
2022-09-14T04:11:11.596Z,87.95
2022-09-14T04:13:38.414Z,88.54
2022-09-14T04:16:05.130Z,88.25
2022-09-14T04:18:31.997Z,88.14
2022-09-14T04:21:05.772Z,88.70
2022-09-14T04:23:36.566Z,89.91
2022-09-14T04:26:17.399Z,88.35
2022-09-14T04:28:43.933Z,88.44
2022-09-14T04:31:11.773Z,88.62
2022-09-14T04:33:40.256Z,88.18
2022-09-14T04:36:13.646Z,88.06
2022-09-14T04:38:41.836Z,88.54
2022-09-14T04:41:11.934Z,88.43
2022-09-14T04:43:39.082Z,88.54
2022-09-14T04:46:08.626Z,89.18
2022-09-14T04:48:35.610Z,89.47
2022-09-14T04:51:06.535Z,89.13
2022-09-14T04:53:38.025Z,89.56
2022-09-14T04:56:07.145Z,89.89
2022-09-14T04:58:35.032Z,89.77
2022-09-14T05:01:06.537Z,89.57
2022-09-14T05:03:32.896Z,90.02
2022-09-14T05:06:07.662Z,89.91
2022-09-14T05:08:36.281Z,89.80
2022-09-14T05:11:02.864Z,89.04
2022-09-14T05:13:29.226Z,88.40
2022-09-14T05:15:55.801Z,88.97
2022-09-14T05:18:22.262Z,88.09
2022-09-14T05:20:48.593Z,87.30
2022-09-14T05:23:15.055Z,86.97
2022-09-14T05:25:41.378Z,87.69
2022-09-14T05:28:08.621Z,87.57
2022-09-14T05:30:34.932Z,87.75
2022-09-14T05:33:01.262Z,86.89
2022-09-14T05:35:27.642Z,87.33
2022-09-14T05:37:53.964Z,86.86
2022-09-14T05:40:20.370Z,86.62
2022-09-14T05:42:46.800Z,87.16
2022-09-14T05:45:13.220Z,87.45
2022-09-14T05:47:39.615Z,87.21
2022-09-14T05:50:08.456Z,88.08
2022-09-14T05:52:34.861Z,87.28
2022-09-14T05:55:01.595Z,88.03
2022-09-14T05:57:27.954Z,87.06
2022-09-14T05:59:54.339Z,86.86
2022-09-14T06:02:20.828Z,87.02
2022-09-14T06:04:47.218Z,86.28
2022-09-14T06:07:18.825Z,87.33
2022-09-14T06:09:45.821Z,87.68
2022-09-14T06:12:14.511Z,88.19
2022-09-14T06:14:40.864Z,88.53
2022-09-14T06:17:07.195Z,87.58
2022-09-14T06:19:33.619Z,87.34
2022-09-14T06:22:00.565Z,87.56
2022-09-14T06:24:27.215Z,86.78
2022-09-14T06:26:53.580Z,87.60
2022-09-14T06:29:19.901Z,87.98
2022-09-14T06:31:46.277Z,87.13
2022-09-14T06:34:12.571Z,88.16
2022-09-14T06:36:38.978Z,87.87
2022-09-14T06:39:05.339Z,87.94
2022-09-14T06:41:32.925Z,87.64
2022-09-14T06:44:01.557Z,87.08
2022-09-14T06:46:31.647Z,87.68
2022-09-14T06:49:01.778Z,87.96
2022-09-14T06:51:31.626Z,88.42
2022-09-14T06:54:00.005Z,87.92
2022-09-14T06:56:28.146Z,88.14
2022-09-14T06:58:54.987Z,87.82
2022-09-14T07:01:21.925Z,87.43
2022-09-14T07:03:48.928Z,86.95
2022-09-14T07:06:27.202Z,87.52
2022-09-14T07:08:54.550Z,87.36
2022-09-14T07:11:23.608Z,88.39
2022-09-14T07:13:50.033Z,87.77
2022-09-14T07:16:16.387Z,86.85
2022-09-14T07:18:42.945Z,88.08
2022-09-14T07:21:10.809Z,87.12
2022-09-14T07:23:39.320Z,87.73
2022-09-14T07:26:16.047Z,87.86
2022-09-14T07:28:44.253Z,87.71
2022-09-14T07:31:17.159Z,87.88
2022-09-14T07:33:43.578Z,87.10
2022-09-14T07:36:11.552Z,86.63
2022-09-14T07:38:52.199Z,87.19
2022-09-14T07:41:24.933Z,87.30
2022-09-14T07:43:53.028Z,86.88
2022-09-14T07:46:20.916Z,87.32
2022-09-14T07:48:49.048Z,87.58
2022-09-14T07:51:15.554Z,87.71
2022-09-14T07:53:43.289Z,88.26
2022-09-14T07:56:11.175Z,87.72
2022-09-14T07:58:37.828Z,88.08
2022-09-14T08:01:11.838Z,87.98
2022-09-14T08:03:43.453Z,88.24
2022-09-14T08:06:17.391Z,88.75
2022-09-14T08:08:48.387Z,88.63
2022-09-14T08:11:22.151Z,89.86
2022-09-14T08:14:04.395Z,89.17
2022-09-14T08:16:32.623Z,89.01
2022-09-14T08:19:02.129Z,88.73
2022-09-14T08:21:30.800Z,87.99
2022-09-14T08:23:58.088Z,89.29
2022-09-14T08:26:26.531Z,89.09
2022-09-14T08:28:54.554Z,88.82
2022-09-14T08:31:26.525Z,88.53
2022-09-14T08:33:56.802Z,88.27
2022-09-14T08:36:24.600Z,87.87
2022-09-14T08:38:51.204Z,88.70
2022-09-14T08:41:35.762Z,88.55
2022-09-14T08:44:17.249Z,88.63
2022-09-14T08:47:01.806Z,88.40
2022-09-14T08:49:52.836Z,87.93
2022-09-14T08:52:28.316Z,87.78
2022-09-14T08:55:00.814Z,87.00
2022-09-14T08:57:43.501Z,87.54
2022-09-14T09:00:14.223Z,87.51
2022-09-14T09:03:09.652Z,86.97
2022-09-14T09:05:46.778Z,87.29
2022-09-14T09:08:18.921Z,86.86
2022-09-14T09:10:46.489Z,87.15
2022-09-14T09:13:19.060Z,87.19
2022-09-14T09:15:51.448Z,87.06
2022-09-14T09:18:39.533Z,87.17
2022-09-14T09:21:10.291Z,87.81
2022-09-14T09:23:37.169Z,87.59
2022-09-14T09:26:07.430Z,86.94
2022-09-14T09:28:34.619Z,87.26
2022-09-14T09:31:11.349Z,87.91
2022-09-14T09:33:39.106Z,88.50
2022-09-14T09:36:08.167Z,87.77
2022-09-14T09:38:35.031Z,87.99
2022-09-14T09:41:16.398Z,88.01
2022-09-14T09:44:01.933Z,88.67
2022-09-14T09:46:34.522Z,88.63
2022-09-14T09:49:34.834Z,88.74
2022-09-14T09:52:28.048Z,88.96
2022-09-14T09:54:56.715Z,87.50
2022-09-14T09:57:32.031Z,87.28
2022-09-14T10:00:29.817Z,88.34
2022-09-14T10:02:57.201Z,87.75
2022-09-14T10:05:28.962Z,88.61
2022-09-14T10:07:58.986Z,88.28
2022-09-14T10:10:47.423Z,88.12
2022-09-14T10:13:17.156Z,88.63
2022-09-14T10:15:43.721Z,88.24
2022-09-14T10:18:13.111Z,88.72
2022-09-14T10:20:44.061Z,89.82
2022-09-14T10:23:19.699Z,89.75
2022-09-14T10:26:07.282Z,89.73
2022-09-14T10:28:34.827Z,89.04
2022-09-14T10:31:28.617Z,88.56
2022-09-14T10:33:57.690Z,89.12
2022-09-14T10:36:42.667Z,88.65
2022-09-14T10:39:29.809Z,88.42
2022-09-14T10:42:00.173Z,88.31
2022-09-14T10:44:54.394Z,87.74
2022-09-14T10:47:45.415Z,89.27
2022-09-14T10:50:24.163Z,89.15
2022-09-14T10:53:03.226Z,89.51
2022-09-14T10:55:42.152Z,88.80
2022-09-14T10:58:34.237Z,88.62
2022-09-14T11:01:25.332Z,87.53
2022-09-14T11:04:16.152Z,88.16
2022-09-14T11:06:48.602Z,89.32
2022-09-14T11:09:27.966Z,88.50
2022-09-14T11:12:25.804Z,87.86
2022-09-14T11:15:17.158Z,87.95
2022-09-14T11:18:07.389Z,88.82
2022-09-14T11:20:52.564Z,88.07
2022-09-14T11:23:21.994Z,87.48
2022-09-14T11:26:00.951Z,88.51
2022-09-14T11:28:41.168Z,87.50
2022-09-14T11:31:14.480Z,88.55
2022-09-14T11:34:08.066Z,88.56
2022-09-14T11:36:41.333Z,88.15
2022-09-14T11:39:37.687Z,87.43
2022-09-14T11:42:09.438Z,87.13
2022-09-14T11:44:39.388Z,87.75
2022-09-14T11:47:09.578Z,87.39
2022-09-14T11:50:01.010Z,87.88
2022-09-14T11:52:29.962Z,88.37
2022-09-14T11:54:58.605Z,89.45
2022-09-14T11:57:27.732Z,88.62
2022-09-14T12:00:10.096Z,88.18
2022-09-14T12:02:36.913Z,87.24
2022-09-14T12:05:06.541Z,87.15
2022-09-14T12:07:35.918Z,87.72
2022-09-14T12:10:14.628Z,88.94
2022-09-14T12:12:41.913Z,88.47
2022-09-14T12:15:22.710Z,87.79
2022-09-14T12:17:51.305Z,87.27
2022-09-14T12:20:40.494Z,87.92
2022-09-14T12:23:15.520Z,87.23
2022-09-14T12:25:53.221Z,86.98
2022-09-14T12:28:34.701Z,87.32
2022-09-14T12:31:02.721Z,88.63
2022-09-14T12:33:32.128Z,88.94
2022-09-14T12:36:02.713Z,88.14
2022-09-14T12:38:28.986Z,88.30
2022-09-14T12:41:15.596Z,87.84
2022-09-14T12:43:41.946Z,87.99
2022-09-14T12:46:08.409Z,87.70
2022-09-14T12:48:55.465Z,88.66
2022-09-14T12:51:31.282Z,87.65
2022-09-14T12:54:16.032Z,88.53
2022-09-14T12:56:51.639Z,89.67
2022-09-14T12:59:39.706Z,89.96
2022-09-14T13:02:36.784Z,89.52
2022-09-14T13:05:07.945Z,88.65
2022-09-14T13:07:36.190Z,88.52
2022-09-14T13:10:06.276Z,88.73
2022-09-14T13:12:39.891Z,87.94
2022-09-14T13:15:16.225Z,88.51
2022-09-14T13:18:05.741Z,88.55
2022-09-14T13:20:34.957Z,88.64
2022-09-14T13:23:02.416Z,88.88
2022-09-14T13:25:37.925Z,88.71
2022-09-14T13:28:13.914Z,88.69
2022-09-14T13:30:41.827Z,88.43
2022-09-14T13:33:16.940Z,87.98
2022-09-14T13:35:47.850Z,88.58
2022-09-14T13:38:18.169Z,87.97
2022-09-14T13:40:46.290Z,87.64
2022-09-14T13:43:12.894Z,88.19
2022-09-14T13:45:39.938Z,87.46
2022-09-14T13:48:06.629Z,88.94
2022-09-14T13:50:34.120Z,89.11
2022-09-14T13:53:02.844Z,87.93
2022-09-14T13:55:35.288Z,87.99
2022-09-14T13:58:06.103Z,86.97
2022-09-14T14:00:34.342Z,88.49
2022-09-14T14:03:03.427Z,87.55
2022-09-14T14:05:33.249Z,88.19
2022-09-14T14:08:02.422Z,88.38
2022-09-14T14:10:34.514Z,88.35
2022-09-14T14:13:02.537Z,87.40
2022-09-14T14:15:31.908Z,88.79
2022-09-14T14:17:58.393Z,88.06
2022-09-14T14:20:34.545Z,88.13
2022-09-14T14:23:20.960Z,88.25
2022-09-14T14:25:54.109Z,88.37
2022-09-14T14:28:26.614Z,86.85
2022-09-14T14:30:54.197Z,87.08
2022-09-14T14:33:22.525Z,86.66
2022-09-14T14:35:54.517Z,85.89
2022-09-14T14:38:23.285Z,86.14
2022-09-14T14:40:51.623Z,85.79
2022-09-14T14:43:25.248Z,86.60
2022-09-14T14:46:01.626Z,86.82
2022-09-14T14:48:29.307Z,85.93
2022-09-14T14:50:55.758Z,86.51
2022-09-14T14:53:23.947Z,87.12
2022-09-14T14:55:50.668Z,87.43
2022-09-14T14:58:19.112Z,87.47
2022-09-14T15:00:47.137Z,88.33
2022-09-14T15:03:15.428Z,87.55
2022-09-14T15:05:43.886Z,86.36
2022-09-14T15:08:16.100Z,86.04
2022-09-14T15:10:42.871Z,86.14
2022-09-14T15:13:10.805Z,86.35
2022-09-14T15:15:41.431Z,86.13
2022-09-14T15:18:08.040Z,85.20
2022-09-14T15:20:34.421Z,85.28
2022-09-14T15:23:00.798Z,85.55
2022-09-14T15:25:27.208Z,85.09
2022-09-14T15:27:53.622Z,83.98
2022-09-14T15:30:20.168Z,84.47
2022-09-14T15:32:46.545Z,83.96
2022-09-14T15:35:14.266Z,83.30
2022-09-14T15:37:40.947Z,83.91
2022-09-14T15:40:07.915Z,85.35
2022-09-14T15:42:34.337Z,84.63
2022-09-14T15:45:00.754Z,85.61
2022-09-14T15:47:27.169Z,86.28
2022-09-14T15:49:53.531Z,86.71
2022-09-14T15:52:20.215Z,86.70
2022-09-14T15:54:46.648Z,86.96
2022-09-14T15:57:13.428Z,86.93
2022-09-14T15:59:40.084Z,84.61
2022-09-14T16:02:06.895Z,84.84
2022-09-14T16:04:37.538Z,85.55
2022-09-14T16:07:05.311Z,85.99
2022-09-14T16:09:31.635Z,85.75
2022-09-14T16:12:01.545Z,86.31
2022-09-14T16:14:28.382Z,86.61
2022-09-14T16:16:54.811Z,86.70
2022-09-14T16:19:21.663Z,86.97
2022-09-14T16:21:52.947Z,87.74
2022-09-14T16:24:21.491Z,86.76
2022-09-14T16:26:47.908Z,85.60
2022-09-14T16:29:16.405Z,85.62
2022-09-14T16:31:45.142Z,86.40
2022-09-14T16:34:15.587Z,86.98
2022-09-14T16:36:42.539Z,86.25
2022-09-14T16:39:15.301Z,86.79
2022-09-14T16:41:42.172Z,86.81
2022-09-14T16:44:13.033Z,86.58
2022-09-14T16:46:39.500Z,86.21
2022-09-14T16:49:06.182Z,87.55
2022-09-14T16:51:33.709Z,87.27
2022-09-14T16:54:00.640Z,86.09
2022-09-14T16:56:30.892Z,88.60
2022-09-14T16:58:58.504Z,87.55
2022-09-14T17:01:29.373Z,86.98
2022-09-14T17:04:01.850Z,85.86
2022-09-14T17:06:31.517Z,86.36
2022-09-14T17:09:00.777Z,86.60
2022-09-14T17:11:29.179Z,86.93
2022-09-14T17:13:56.200Z,87.33
2022-09-14T17:16:24.675Z,88.16
2022-09-14T17:18:52.886Z,87.59
2022-09-14T17:21:22.555Z,87.30
2022-09-14T17:23:49.558Z,88.30
2022-09-14T17:26:18.630Z,88.31
2022-09-14T17:28:47.235Z,88.65
2022-09-14T17:31:17.685Z,88.28
2022-09-14T17:33:44.996Z,88.09
2022-09-14T17:36:17.417Z,88.22
2022-09-14T17:38:44.715Z,88.75
2022-09-14T17:41:22.369Z,89.07
2022-09-14T17:43:53.670Z,89.00
2022-09-14T17:46:22.041Z,89.31
2022-09-14T17:48:50.072Z,88.57
2022-09-14T17:51:22.511Z,88.58
2022-09-14T17:53:51.257Z,88.69
2022-09-14T17:56:21.269Z,88.52
2022-09-14T17:58:48.961Z,87.89
2022-09-14T18:01:19.560Z,88.02
2022-09-14T18:03:51.123Z,87.88
2022-09-14T18:06:18.701Z,88.68
2022-09-14T18:08:45.366Z,88.95
2022-09-14T18:11:14.158Z,88.41
2022-09-14T18:13:42.021Z,88.73
2022-09-14T18:16:08.913Z,88.99
2022-09-14T18:18:35.442Z,88.34
2022-09-14T18:21:02.408Z,87.91
2022-09-14T18:23:29.223Z,87.46
2022-09-14T18:25:56.140Z,87.63
2022-09-14T18:28:23.720Z,88.41
2022-09-14T18:30:50.563Z,88.91
2022-09-14T18:33:17.160Z,88.75
2022-09-14T18:35:43.561Z,89.20
2022-09-14T18:38:11.564Z,89.51
2022-09-14T18:40:38.373Z,88.56
2022-09-14T18:43:04.796Z,88.52
2022-09-14T18:45:31.291Z,88.90
2022-09-14T18:47:57.646Z,88.89
2022-09-14T18:50:24.203Z,89.40
2022-09-14T18:52:51.873Z,88.50
2022-09-14T18:55:18.995Z,89.93
2022-09-14T18:57:47.230Z,89.58
2022-09-14T19:00:18.307Z,88.86
2022-09-14T19:02:45.862Z,88.27
2022-09-14T19:05:12.471Z,89.24
2022-09-14T19:07:38.810Z,89.23
2022-09-14T19:10:10.993Z,89.98
2022-09-14T19:12:38.104Z,89.89
2022-09-14T19:15:05.303Z,90.21
2022-09-14T19:17:31.712Z,90.18
2022-09-14T19:19:58.298Z,90.26
2022-09-14T19:22:24.984Z,90.13
2022-09-14T19:24:51.544Z,89.65
2022-09-14T19:27:17.939Z,89.94
2022-09-14T19:29:44.330Z,89.77
2022-09-14T19:32:10.700Z,89.93
2022-09-14T19:34:38.470Z,90.13
2022-09-14T19:37:04.994Z,89.83
2022-09-14T19:39:31.473Z,89.44
2022-09-14T19:41:58.234Z,89.82
2022-09-14T19:44:24.686Z,89.97
2022-09-14T19:46:51.236Z,90.20
2022-09-14T19:49:20.964Z,90.47
2022-09-14T19:51:48.366Z,89.67
2022-09-14T19:54:14.900Z,90.16
2022-09-14T19:56:42.106Z,90.07
2022-09-14T19:59:09.306Z,89.80
2022-09-14T20:01:37.478Z,89.70
2022-09-14T20:04:05.643Z,89.97
2022-09-14T20:06:36.645Z,90.20
2022-09-14T20:09:05.994Z,90.35
2022-09-14T20:11:34.453Z,90.45
2022-09-14T20:14:03.381Z,90.47
2022-09-14T20:16:39.871Z,89.94
2022-09-14T20:19:12.440Z,89.97
2022-09-14T20:21:41.196Z,89.98
2022-09-14T20:24:16.148Z,89.92
2022-09-14T20:26:44.338Z,89.49
2022-09-14T20:29:11.088Z,90.14
2022-09-14T20:31:37.821Z,89.86
2022-09-14T20:34:04.568Z,89.86
2022-09-14T20:36:31.372Z,89.74
2022-09-14T20:38:59.362Z,89.75
2022-09-14T20:41:31.376Z,89.82
2022-09-14T20:43:57.971Z,89.83
2022-09-14T20:46:26.085Z,89.90
2022-09-14T20:48:53.746Z,90.00
2022-09-14T20:51:21.645Z,90.14
2022-09-14T20:53:48.568Z,90.10
2022-09-14T20:56:21.307Z,89.66
2022-09-14T20:58:48.713Z,89.71
2022-09-14T21:01:18.288Z,89.73
2022-09-14T21:03:47.309Z,90.17
2022-09-14T21:06:17.602Z,89.99
2022-09-14T21:08:44.385Z,89.81
2022-09-14T21:11:14.800Z,90.41
2022-09-14T21:13:42.657Z,89.95
2022-09-14T21:16:10.355Z,90.09
2022-09-14T21:18:37.361Z,89.80
2022-09-14T21:21:06.432Z,90.00
2022-09-14T21:23:33.417Z,90.12
2022-09-14T21:26:00.108Z,90.12
2022-09-14T21:28:26.659Z,90.05
2022-09-14T21:31:02.182Z,89.59
2022-09-14T21:33:28.575Z,89.52
2022-09-14T21:35:54.965Z,89.39
2022-09-14T21:38:21.341Z,89.46
2022-09-14T21:40:47.660Z,89.57
2022-09-14T21:43:14.084Z,89.76
2022-09-14T21:45:46.544Z,89.73
2022-09-14T21:48:12.948Z,90.22
2022-09-14T21:50:40.202Z,90.12
2022-09-14T21:53:07.818Z,90.00
2022-09-14T21:55:38.355Z,89.91
2022-09-14T21:58:04.762Z,90.12
2022-09-14T22:00:31.148Z,90.89
2022-09-14T22:02:58.117Z,90.74
2022-09-14T22:05:25.067Z,90.39
2022-09-14T22:07:51.419Z,89.85
2022-09-14T22:10:17.834Z,90.24
2022-09-14T22:12:44.264Z,90.12
2022-09-14T22:15:10.994Z,90.05
2022-09-14T22:17:37.503Z,90.04
2022-09-14T22:20:04.508Z,89.99
2022-09-14T22:22:30.908Z,89.84
2022-09-14T22:24:57.260Z,89.81
2022-09-14T22:27:23.782Z,90.23
2022-09-14T22:29:50.142Z,89.77
2022-09-14T22:32:16.526Z,89.75
2022-09-14T22:34:46.499Z,89.69
2022-09-14T22:37:15.315Z,90.00
2022-09-14T22:39:41.846Z,89.78
2022-09-14T22:42:08.192Z,89.95
2022-09-14T22:44:34.530Z,90.02
2022-09-14T22:47:00.912Z,90.36
2022-09-14T22:49:27.310Z,90.27
2022-09-14T22:51:53.670Z,90.38
2022-09-14T22:54:20.054Z,90.11
2022-09-14T22:56:46.427Z,90.24
2022-09-14T22:59:13.014Z,90.60
2022-09-14T23:01:41.263Z,90.52
2022-09-14T23:04:10.916Z,90.93
2022-09-14T23:06:40.798Z,90.79
2022-09-14T23:09:10.081Z,90.33
2022-09-14T23:11:36.590Z,90.51
2022-09-14T23:14:03.439Z,90.65
2022-09-14T23:16:30.749Z,90.67
2022-09-14T23:19:00.036Z,90.58
2022-09-14T23:21:27.652Z,90.99
2022-09-14T23:23:59.888Z,90.57
2022-09-14T23:26:26.722Z,90.58
2022-09-14T23:29:01.127Z,90.63
2022-09-14T23:31:29.047Z,90.54
2022-09-14T23:33:57.615Z,90.72
2022-09-14T23:36:25.242Z,90.38
2022-09-14T23:38:52.185Z,90.19
2022-09-14T23:41:20.040Z,90.39
2022-09-14T23:43:46.869Z,90.62
2022-09-14T23:46:14.102Z,90.33
2022-09-14T23:48:40.817Z,90.04
2022-09-14T23:51:08.887Z,90.15
2022-09-14T23:53:36.031Z,90.41
2022-09-14T23:56:03.415Z,90.41
2022-09-14T23:58:30.411Z,90.39
